sensor_id;sensor_type;location;lat;lon;timestamp;temperature;humidity
21678;DHT22;11000;50.360;7.582;2023-07-30T00:01:47;18.70;99.90
21678;DHT22;11000;50.360;7.582;2023-07-30T00:04:08;18.70;99.90
21678;DHT22;11000;50.360;7.582;2023-07-30T00:06:29;18.70;99.90
21678;DHT22;11000;50.360;7.582;2023-07-30T00:08:49;18.70;99.90
21678;DHT22;11000;50.360;7.582;2023-07-30T00:11:10;18.60;99.90
21678;DHT22;11000;50.360;7.582;2023-07-30T00:13:30;18.60;99.90
21678;DHT22;11000;50.360;7.582;2023-07-30T00:15:51;18.50;99.90
21678;DHT22;11000;50.360;7.582;2023-07-30T00:18:11;18.50;99.90
21678;DHT22;11000;50.360;7.582;2023-07-30T00:20:34;18.50;99.90
21678;DHT22;11000;50.360;7.582;2023-07-30T00:22:55;18.50;99.90
21678;DHT22;11000;50.360;7.582;2023-07-30T00:25:15;18.50;99.90
21678;DHT22;11000;50.360;7.582;2023-07-30T00:27:36;18.50;99.90
21678;DHT22;11000;50.360;7.582;2023-07-30T00:29:56;18.60;99.90
21678;DHT22;11000;50.360;7.582;2023-07-30T00:32:17;18.60;99.90
21678;DHT22;11000;50.360;7.582;2023-07-30T00:34:37;18.60;99.90
21678;DHT22;11000;50.360;7.582;2023-07-30T00:36:58;18.70;99.90
21678;DHT22;11000;50.360;7.582;2023-07-30T00:39:18;18.70;99.90
21678;DHT22;11000;50.360;7.582;2023-07-30T00:41:39;18.70;99.90
21678;DHT22;11000;50.360;7.582;2023-07-30T00:43:59;18.70;99.90
21678;DHT22;11000;50.360;7.582;2023-07-30T00:46:20;18.70;99.90
21678;DHT22;11000;50.360;7.582;2023-07-30T00:48:41;18.80;99.90
21678;DHT22;11000;50.360;7.582;2023-07-30T00:51:01;18.80;99.90
21678;DHT22;11000;50.360;7.582;2023-07-30T00:53:24;18.80;99.90
21678;DHT22;11000;50.360;7.582;2023-07-30T00:55:46;18.80;99.90
21678;DHT22;11000;50.360;7.582;2023-07-30T00:58:07;18.80;99.90
21678;DHT22;11000;50.360;7.582;2023-07-30T01:00:30;18.70;99.90
21678;DHT22;11000;50.360;7.582;2023-07-30T01:02:52;18.60;99.90
21678;DHT22;11000;50.360;7.582;2023-07-30T01:05:12;18.60;99.90
21678;DHT22;11000;50.360;7.582;2023-07-30T01:07:33;18.60;99.90
21678;DHT22;11000;50.360;7.582;2023-07-30T01:09:53;18.60;99.90
21678;DHT22;11000;50.360;7.582;2023-07-30T01:12:14;18.60;99.90
21678;DHT22;11000;50.360;7.582;2023-07-30T01:14:35;18.60;99.90
21678;DHT22;11000;50.360;7.582;2023-07-30T01:16:58;18.60;99.90
21678;DHT22;11000;50.360;7.582;2023-07-30T01:19:18;18.60;99.90
21678;DHT22;11000;50.360;7.582;2023-07-30T01:21:39;18.70;99.90
21678;DHT22;11000;50.360;7.582;2023-07-30T01:23:59;18.70;99.90
21678;DHT22;11000;50.360;7.582;2023-07-30T01:26:24;18.70;99.90
21678;DHT22;11000;50.360;7.582;2023-07-30T01:28:49;18.70;99.90
21678;DHT22;11000;50.360;7.582;2023-07-30T01:31:14;18.80;99.90
21678;DHT22;11000;50.360;7.582;2023-07-30T01:33:36;18.70;99.90
21678;DHT22;11000;50.360;7.582;2023-07-30T01:35:58;18.70;99.90
21678;DHT22;11000;50.360;7.582;2023-07-30T01:38:19;18.70;99.90
21678;DHT22;11000;50.360;7.582;2023-07-30T01:40:40;18.70;99.90
21678;DHT22;11000;50.360;7.582;2023-07-30T01:43:01;18.70;99.90
21678;DHT22;11000;50.360;7.582;2023-07-30T01:45:22;18.70;99.90
21678;DHT22;11000;50.360;7.582;2023-07-30T01:47:42;18.70;99.90
21678;DHT22;11000;50.360;7.582;2023-07-30T01:50:03;18.70;99.90
21678;DHT22;11000;50.360;7.582;2023-07-30T01:52:24;18.70;99.90
21678;DHT22;11000;50.360;7.582;2023-07-30T01:54:44;18.70;99.90
21678;DHT22;11000;50.360;7.582;2023-07-30T01:57:05;18.60;99.90
21678;DHT22;11000;50.360;7.582;2023-07-30T01:59:25;18.70;99.90
21678;DHT22;11000;50.360;7.582;2023-07-30T02:01:46;18.70;99.90
21678;DHT22;11000;50.360;7.582;2023-07-30T02:04:06;18.70;99.90
21678;DHT22;11000;50.360;7.582;2023-07-30T02:06:27;18.70;99.90
21678;DHT22;11000;50.360;7.582;2023-07-30T02:08:47;18.70;99.90
21678;DHT22;11000;50.360;7.582;2023-07-30T02:11:08;18.70;99.90
21678;DHT22;11000;50.360;7.582;2023-07-30T02:13:28;18.70;99.90
21678;DHT22;11000;50.360;7.582;2023-07-30T02:15:49;18.70;99.90
21678;DHT22;11000;50.360;7.582;2023-07-30T02:18:09;18.60;99.90
21678;DHT22;11000;50.360;7.582;2023-07-30T02:20:30;18.60;99.90
21678;DHT22;11000;50.360;7.582;2023-07-30T02:22:51;18.60;99.90
21678;DHT22;11000;50.360;7.582;2023-07-30T02:25:11;18.60;99.90
21678;DHT22;11000;50.360;7.582;2023-07-30T02:27:32;18.60;99.90
21678;DHT22;11000;50.360;7.582;2023-07-30T02:29:52;18.60;99.90
21678;DHT22;11000;50.360;7.582;2023-07-30T02:32:13;18.60;99.90
21678;DHT22;11000;50.360;7.582;2023-07-30T02:34:33;18.60;99.90
21678;DHT22;11000;50.360;7.582;2023-07-30T02:36:54;18.60;99.90
21678;DHT22;11000;50.360;7.582;2023-07-30T02:39:14;18.60;99.90
21678;DHT22;11000;50.360;7.582;2023-07-30T02:41:35;18.70;99.90
21678;DHT22;11000;50.360;7.582;2023-07-30T02:43:55;18.60;99.90
21678;DHT22;11000;50.360;7.582;2023-07-30T02:46:16;18.60;99.90
21678;DHT22;11000;50.360;7.582;2023-07-30T02:48:36;18.60;99.90
21678;DHT22;11000;50.360;7.582;2023-07-30T02:50:57;18.60;99.90
21678;DHT22;11000;50.360;7.582;2023-07-30T02:53:17;18.60;99.90
21678;DHT22;11000;50.360;7.582;2023-07-30T02:55:37;18.60;99.90
21678;DHT22;11000;50.360;7.582;2023-07-30T02:57:58;18.60;99.90
21678;DHT22;11000;50.360;7.582;2023-07-30T03:00:18;18.60;99.90
21678;DHT22;11000;50.360;7.582;2023-07-30T03:02:40;18.50;99.90
21678;DHT22;11000;50.360;7.582;2023-07-30T03:05:01;18.50;99.90
21678;DHT22;11000;50.360;7.582;2023-07-30T03:07:21;18.60;99.90
21678;DHT22;11000;50.360;7.582;2023-07-30T03:09:42;18.60;99.90
21678;DHT22;11000;50.360;7.582;2023-07-30T03:12:04;18.50;99.90
21678;DHT22;11000;50.360;7.582;2023-07-30T03:14:24;18.50;99.90
21678;DHT22;11000;50.360;7.582;2023-07-30T03:16:45;18.60;99.90
21678;DHT22;11000;50.360;7.582;2023-07-30T03:19:05;18.60;99.90
21678;DHT22;11000;50.360;7.582;2023-07-30T03:21:26;18.60;99.90
21678;DHT22;11000;50.360;7.582;2023-07-30T03:23:46;18.60;99.90
21678;DHT22;11000;50.360;7.582;2023-07-30T03:26:08;18.60;99.90
21678;DHT22;11000;50.360;7.582;2023-07-30T03:28:29;18.60;99.90
21678;DHT22;11000;50.360;7.582;2023-07-30T03:30:49;18.60;99.90
21678;DHT22;11000;50.360;7.582;2023-07-30T03:33:10;18.60;99.90
21678;DHT22;11000;50.360;7.582;2023-07-30T03:35:31;18.60;99.90
21678;DHT22;11000;50.360;7.582;2023-07-30T03:37:51;18.50;99.90
21678;DHT22;11000;50.360;7.582;2023-07-30T03:40:12;18.50;99.90
21678;DHT22;11000;50.360;7.582;2023-07-30T03:42:32;18.50;99.90
21678;DHT22;11000;50.360;7.582;2023-07-30T03:44:53;18.50;99.90
21678;DHT22;11000;50.360;7.582;2023-07-30T03:47:13;18.60;99.90
21678;DHT22;11000;50.360;7.582;2023-07-30T03:49:34;18.60;99.90
21678;DHT22;11000;50.360;7.582;2023-07-30T03:51:54;18.60;99.90
21678;DHT22;11000;50.360;7.582;2023-07-30T03:54:15;18.60;99.90
21678;DHT22;11000;50.360;7.582;2023-07-30T03:56:35;18.60;99.90
21678;DHT22;11000;50.360;7.582;2023-07-30T03:58:56;18.60;99.90
21678;DHT22;11000;50.360;7.582;2023-07-30T04:01:16;18.60;99.90
21678;DHT22;11000;50.360;7.582;2023-07-30T04:03:37;18.60;99.90
21678;DHT22;11000;50.360;7.582;2023-07-30T04:05:57;18.60;99.90
21678;DHT22;11000;50.360;7.582;2023-07-30T04:08:18;18.60;99.90
21678;DHT22;11000;50.360;7.582;2023-07-30T04:10:38;18.60;99.90
21678;DHT22;11000;50.360;7.582;2023-07-30T04:12:59;18.60;99.90
21678;DHT22;11000;50.360;7.582;2023-07-30T04:15:19;18.60;99.90
21678;DHT22;11000;50.360;7.582;2023-07-30T04:17:40;18.60;99.90
21678;DHT22;11000;50.360;7.582;2023-07-30T04:20:00;18.60;99.90
21678;DHT22;11000;50.360;7.582;2023-07-30T04:22:21;18.60;99.90
21678;DHT22;11000;50.360;7.582;2023-07-30T04:24:41;18.60;99.90
21678;DHT22;11000;50.360;7.582;2023-07-30T04:27:02;18.60;99.90
21678;DHT22;11000;50.360;7.582;2023-07-30T04:29:23;18.60;99.90
21678;DHT22;11000;50.360;7.582;2023-07-30T04:31:43;18.60;99.90
21678;DHT22;11000;50.360;7.582;2023-07-30T04:34:04;18.60;99.90
21678;DHT22;11000;50.360;7.582;2023-07-30T04:36:24;18.60;99.90
21678;DHT22;11000;50.360;7.582;2023-07-30T04:38:45;18.50;99.90
21678;DHT22;11000;50.360;7.582;2023-07-30T04:41:05;18.50;99.90
21678;DHT22;11000;50.360;7.582;2023-07-30T04:43:26;18.60;99.90
21678;DHT22;11000;50.360;7.582;2023-07-30T04:45:46;18.60;99.90
21678;DHT22;11000;50.360;7.582;2023-07-30T04:48:07;18.60;99.90
21678;DHT22;11000;50.360;7.582;2023-07-30T04:50:27;18.60;99.90
21678;DHT22;11000;50.360;7.582;2023-07-30T04:52:48;18.60;99.90
21678;DHT22;11000;50.360;7.582;2023-07-30T04:55:08;18.60;99.90
21678;DHT22;11000;50.360;7.582;2023-07-30T04:57:29;18.60;99.90
21678;DHT22;11000;50.360;7.582;2023-07-30T04:59:49;18.60;99.90
21678;DHT22;11000;50.360;7.582;2023-07-30T05:02:10;18.70;99.90
21678;DHT22;11000;50.360;7.582;2023-07-30T05:04:30;18.70;99.90
21678;DHT22;11000;50.360;7.582;2023-07-30T05:06:51;18.70;99.90
21678;DHT22;11000;50.360;7.582;2023-07-30T05:09:11;18.70;99.90
21678;DHT22;11000;50.360;7.582;2023-07-30T05:11:32;18.70;99.90
21678;DHT22;11000;50.360;7.582;2023-07-30T05:13:53;18.70;99.90
21678;DHT22;11000;50.360;7.582;2023-07-30T05:16:13;18.80;99.90
21678;DHT22;11000;50.360;7.582;2023-07-30T05:18:34;18.80;99.90
21678;DHT22;11000;50.360;7.582;2023-07-30T05:20:55;18.90;99.90
21678;DHT22;11000;50.360;7.582;2023-07-30T05:23:15;19.00;99.90
21678;DHT22;11000;50.360;7.582;2023-07-30T05:25:36;19.10;99.90
21678;DHT22;11000;50.360;7.582;2023-07-30T05:27:57;19.20;99.90
21678;DHT22;11000;50.360;7.582;2023-07-30T05:30:17;19.30;99.90
21678;DHT22;11000;50.360;7.582;2023-07-30T05:32:37;19.40;99.90
21678;DHT22;11000;50.360;7.582;2023-07-30T05:34:58;19.40;99.90
21678;DHT22;11000;50.360;7.582;2023-07-30T05:37:19;19.40;99.90
21678;DHT22;11000;50.360;7.582;2023-07-30T05:39:39;19.40;99.90
21678;DHT22;11000;50.360;7.582;2023-07-30T05:42:00;19.30;99.90
21678;DHT22;11000;50.360;7.582;2023-07-30T05:44:20;19.20;99.90
21678;DHT22;11000;50.360;7.582;2023-07-30T05:46:41;19.20;99.90
21678;DHT22;11000;50.360;7.582;2023-07-30T05:49:01;19.20;99.90
21678;DHT22;11000;50.360;7.582;2023-07-30T05:51:22;19.20;99.90
21678;DHT22;11000;50.360;7.582;2023-07-30T05:53:42;19.20;99.90
21678;DHT22;11000;50.360;7.582;2023-07-30T05:56:03;19.20;99.90
21678;DHT22;11000;50.360;7.582;2023-07-30T05:58:24;19.20;99.90
21678;DHT22;11000;50.360;7.582;2023-07-30T06:00:44;19.30;99.90
21678;DHT22;11000;50.360;7.582;2023-07-30T06:03:05;19.30;99.90
21678;DHT22;11000;50.360;7.582;2023-07-30T06:05:26;19.30;99.90
21678;DHT22;11000;50.360;7.582;2023-07-30T06:07:47;19.40;99.90
21678;DHT22;11000;50.360;7.582;2023-07-30T06:10:07;19.40;99.90
21678;DHT22;11000;50.360;7.582;2023-07-30T06:12:28;19.40;99.90
21678;DHT22;11000;50.360;7.582;2023-07-30T06:14:48;19.30;99.90
21678;DHT22;11000;50.360;7.582;2023-07-30T06:17:09;19.30;99.90
21678;DHT22;11000;50.360;7.582;2023-07-30T06:19:29;19.40;99.90
21678;DHT22;11000;50.360;7.582;2023-07-30T06:21:50;19.30;99.90
21678;DHT22;11000;50.360;7.582;2023-07-30T06:24:11;19.20;99.90
21678;DHT22;11000;50.360;7.582;2023-07-30T06:26:32;19.20;99.90
21678;DHT22;11000;50.360;7.582;2023-07-30T06:28:53;19.20;99.90
21678;DHT22;11000;50.360;7.582;2023-07-30T06:31:13;19.20;99.90
21678;DHT22;11000;50.360;7.582;2023-07-30T06:33:34;19.10;99.90
21678;DHT22;11000;50.360;7.582;2023-07-30T06:35:54;19.20;99.90
21678;DHT22;11000;50.360;7.582;2023-07-30T06:38:15;19.20;99.90
21678;DHT22;11000;50.360;7.582;2023-07-30T06:40:35;19.20;99.90
21678;DHT22;11000;50.360;7.582;2023-07-30T06:42:56;19.20;99.90
21678;DHT22;11000;50.360;7.582;2023-07-30T06:45:16;19.20;99.90
21678;DHT22;11000;50.360;7.582;2023-07-30T06:47:37;19.20;99.90
21678;DHT22;11000;50.360;7.582;2023-07-30T06:49:57;19.20;99.90
21678;DHT22;11000;50.360;7.582;2023-07-30T06:52:18;19.20;99.90
21678;DHT22;11000;50.360;7.582;2023-07-30T06:54:39;19.10;99.90
21678;DHT22;11000;50.360;7.582;2023-07-30T06:57:00;19.10;99.90
21678;DHT22;11000;50.360;7.582;2023-07-30T06:59:20;19.10;99.90
21678;DHT22;11000;50.360;7.582;2023-07-30T07:01:40;19.10;99.90
21678;DHT22;11000;50.360;7.582;2023-07-30T07:04:01;19.10;99.90
21678;DHT22;11000;50.360;7.582;2023-07-30T07:06:21;19.00;99.90
21678;DHT22;11000;50.360;7.582;2023-07-30T07:08:42;19.00;99.90
21678;DHT22;11000;50.360;7.582;2023-07-30T07:11:02;18.90;99.90
21678;DHT22;11000;50.360;7.582;2023-07-30T07:13:23;19.00;99.90
21678;DHT22;11000;50.360;7.582;2023-07-30T07:15:44;19.00;99.90
21678;DHT22;11000;50.360;7.582;2023-07-30T07:18:05;19.00;99.90
21678;DHT22;11000;50.360;7.582;2023-07-30T07:20:25;18.90;99.90
21678;DHT22;11000;50.360;7.582;2023-07-30T07:22:46;18.90;99.90
21678;DHT22;11000;50.360;7.582;2023-07-30T07:25:07;19.00;99.90
21678;DHT22;11000;50.360;7.582;2023-07-30T07:27:27;18.80;99.90
21678;DHT22;11000;50.360;7.582;2023-07-30T07:29:48;18.80;99.90
21678;DHT22;11000;50.360;7.582;2023-07-30T07:32:08;18.80;99.90
21678;DHT22;11000;50.360;7.582;2023-07-30T07:34:29;18.80;99.90
21678;DHT22;11000;50.360;7.582;2023-07-30T07:36:49;18.80;99.90
21678;DHT22;11000;50.360;7.582;2023-07-30T07:39:10;18.70;99.90
21678;DHT22;11000;50.360;7.582;2023-07-30T07:41:31;18.70;99.90
21678;DHT22;11000;50.360;7.582;2023-07-30T07:43:52;18.70;99.90
21678;DHT22;11000;50.360;7.582;2023-07-30T07:46:14;18.70;99.90
21678;DHT22;11000;50.360;7.582;2023-07-30T07:48:34;18.70;99.90
21678;DHT22;11000;50.360;7.582;2023-07-30T07:50:55;18.60;99.90
21678;DHT22;11000;50.360;7.582;2023-07-30T07:53:15;18.60;99.90
21678;DHT22;11000;50.360;7.582;2023-07-30T07:55:36;18.40;99.90
21678;DHT22;11000;50.360;7.582;2023-07-30T07:57:56;18.30;99.90
21678;DHT22;11000;50.360;7.582;2023-07-30T08:00:17;18.10;99.90
21678;DHT22;11000;50.360;7.582;2023-07-30T08:02:38;18.00;99.90
21678;DHT22;11000;50.360;7.582;2023-07-30T08:04:59;17.70;99.90
21678;DHT22;11000;50.360;7.582;2023-07-30T08:07:19;17.60;99.90
21678;DHT22;11000;50.360;7.582;2023-07-30T08:09:40;17.50;99.90
21678;DHT22;11000;50.360;7.582;2023-07-30T08:12:00;17.50;99.90
21678;DHT22;11000;50.360;7.582;2023-07-30T08:14:21;17.50;99.90
21678;DHT22;11000;50.360;7.582;2023-07-30T08:16:42;17.50;99.90
21678;DHT22;11000;50.360;7.582;2023-07-30T08:19:02;17.40;99.90
21678;DHT22;11000;50.360;7.582;2023-07-30T08:21:23;17.50;99.90
21678;DHT22;11000;50.360;7.582;2023-07-30T08:23:43;17.50;99.90
21678;DHT22;11000;50.360;7.582;2023-07-30T08:26:04;17.50;99.90
21678;DHT22;11000;50.360;7.582;2023-07-30T08:28:24;17.40;99.90
21678;DHT22;11000;50.360;7.582;2023-07-30T08:30:45;17.30;99.90
21678;DHT22;11000;50.360;7.582;2023-07-30T08:33:06;17.40;99.90
21678;DHT22;11000;50.360;7.582;2023-07-30T08:35:26;17.50;99.90
21678;DHT22;11000;50.360;7.582;2023-07-30T08:37:47;17.60;99.90
21678;DHT22;11000;50.360;7.582;2023-07-30T08:40:08;17.80;99.90
21678;DHT22;11000;50.360;7.582;2023-07-30T08:42:29;17.70;99.90
21678;DHT22;11000;50.360;7.582;2023-07-30T08:44:49;17.70;99.90
21678;DHT22;11000;50.360;7.582;2023-07-30T08:47:10;17.80;99.90
21678;DHT22;11000;50.360;7.582;2023-07-30T08:49:34;17.90;99.90
21678;DHT22;11000;50.360;7.582;2023-07-30T08:51:56;18.00;99.90
21678;DHT22;11000;50.360;7.582;2023-07-30T08:54:17;18.00;99.90
21678;DHT22;11000;50.360;7.582;2023-07-30T08:56:37;18.00;99.90
21678;DHT22;11000;50.360;7.582;2023-07-30T08:58:59;18.00;99.90
21678;DHT22;11000;50.360;7.582;2023-07-30T09:01:21;17.90;99.90
21678;DHT22;11000;50.360;7.582;2023-07-30T09:03:42;17.90;99.90
21678;DHT22;11000;50.360;7.582;2023-07-30T09:06:03;17.80;99.90
21678;DHT22;11000;50.360;7.582;2023-07-30T09:08:24;17.90;99.90
21678;DHT22;11000;50.360;7.582;2023-07-30T09:10:44;17.90;99.90
21678;DHT22;11000;50.360;7.582;2023-07-30T09:13:05;18.00;99.90
21678;DHT22;11000;50.360;7.582;2023-07-30T09:15:30;18.10;99.90
21678;DHT22;11000;50.360;7.582;2023-07-30T09:17:55;18.10;99.90
21678;DHT22;11000;50.360;7.582;2023-07-30T09:20:17;18.10;99.90
21678;DHT22;11000;50.360;7.582;2023-07-30T09:22:37;18.10;99.90
21678;DHT22;11000;50.360;7.582;2023-07-30T09:25:02;18.00;99.90
21678;DHT22;11000;50.360;7.582;2023-07-30T09:27:24;18.00;99.90
21678;DHT22;11000;50.360;7.582;2023-07-30T09:29:54;17.90;99.90
21678;DHT22;11000;50.360;7.582;2023-07-30T09:32:14;17.80;99.90
21678;DHT22;11000;50.360;7.582;2023-07-30T09:34:35;17.80;99.90
21678;DHT22;11000;50.360;7.582;2023-07-30T09:36:56;18.00;99.90
21678;DHT22;11000;50.360;7.582;2023-07-30T09:41:42;18.20;99.90
21678;DHT22;11000;50.360;7.582;2023-07-30T09:44:03;18.50;99.90
21678;DHT22;11000;50.360;7.582;2023-07-30T09:46:29;18.90;99.90
21678;DHT22;11000;50.360;7.582;2023-07-30T09:48:50;19.40;99.90
21678;DHT22;11000;50.360;7.582;2023-07-30T09:51:10;19.80;99.90
21678;DHT22;11000;50.360;7.582;2023-07-30T09:53:32;20.10;99.90
21678;DHT22;11000;50.360;7.582;2023-07-30T09:55:56;20.40;99.90
21678;DHT22;11000;50.360;7.582;2023-07-30T09:58:17;20.60;99.90
21678;DHT22;11000;50.360;7.582;2023-07-30T10:00:37;20.50;99.90
21678;DHT22;11000;50.360;7.582;2023-07-30T10:02:58;20.40;99.90
21678;DHT22;11000;50.360;7.582;2023-07-30T10:05:25;20.40;99.90
21678;DHT22;11000;50.360;7.582;2023-07-30T10:08:00;20.40;99.90
21678;DHT22;11000;50.360;7.582;2023-07-30T10:10:24;20.40;99.90
21678;DHT22;11000;50.360;7.582;2023-07-30T10:12:45;20.30;99.90
21678;DHT22;11000;50.360;7.582;2023-07-30T10:15:07;20.30;99.90
21678;DHT22;11000;50.360;7.582;2023-07-30T10:17:28;20.30;99.90
21678;DHT22;11000;50.360;7.582;2023-07-30T10:19:49;20.20;99.90
21678;DHT22;11000;50.360;7.582;2023-07-30T10:24:34;19.90;99.90
21678;DHT22;11000;50.360;7.582;2023-07-30T10:26:54;19.80;99.90
21678;DHT22;11000;50.360;7.582;2023-07-30T10:29:21;19.60;99.90
21678;DHT22;11000;50.360;7.582;2023-07-30T10:32:03;19.60;99.90
21678;DHT22;11000;50.360;7.582;2023-07-30T10:34:46;19.50;99.90
21678;DHT22;11000;50.360;7.582;2023-07-30T10:37:07;19.40;99.90
21678;DHT22;11000;50.360;7.582;2023-07-30T10:39:28;19.30;99.90
21678;DHT22;11000;50.360;7.582;2023-07-30T10:41:50;19.40;99.90
21678;DHT22;11000;50.360;7.582;2023-07-30T10:44:32;19.50;99.90
21678;DHT22;11000;50.360;7.582;2023-07-30T10:46:54;19.50;99.90
21678;DHT22;11000;50.360;7.582;2023-07-30T10:49:14;19.60;99.90
21678;DHT22;11000;50.360;7.582;2023-07-30T10:51:35;19.70;99.90
21678;DHT22;11000;50.360;7.582;2023-07-30T10:53:55;19.80;99.90
21678;DHT22;11000;50.360;7.582;2023-07-30T10:56:18;19.90;99.90
21678;DHT22;11000;50.360;7.582;2023-07-30T10:58:39;19.90;99.90
21678;DHT22;11000;50.360;7.582;2023-07-30T11:01:04;20.00;99.90
21678;DHT22;11000;50.360;7.582;2023-07-30T11:03:26;20.00;99.90
21678;DHT22;11000;50.360;7.582;2023-07-30T11:05:49;20.20;99.90
21678;DHT22;11000;50.360;7.582;2023-07-30T11:08:09;20.00;99.90
21678;DHT22;11000;50.360;7.582;2023-07-30T11:10:30;20.00;99.90
21678;DHT22;11000;50.360;7.582;2023-07-30T11:12:51;20.10;99.90
21678;DHT22;11000;50.360;7.582;2023-07-30T11:15:11;20.20;99.90
21678;DHT22;11000;50.360;7.582;2023-07-30T11:17:32;20.30;99.90
21678;DHT22;11000;50.360;7.582;2023-07-30T11:19:52;20.50;99.90
21678;DHT22;11000;50.360;7.582;2023-07-30T11:22:13;21.20;99.90
21678;DHT22;11000;50.360;7.582;2023-07-30T11:24:37;21.80;99.90
21678;DHT22;11000;50.360;7.582;2023-07-30T11:27:00;22.10;99.90
21678;DHT22;11000;50.360;7.582;2023-07-30T11:29:21;22.00;99.90
21678;DHT22;11000;50.360;7.582;2023-07-30T11:31:43;21.70;99.90
21678;DHT22;11000;50.360;7.582;2023-07-30T11:34:03;21.60;99.90
21678;DHT22;11000;50.360;7.582;2023-07-30T11:36:25;21.50;99.90
21678;DHT22;11000;50.360;7.582;2023-07-30T11:38:46;21.20;99.90
21678;DHT22;11000;50.360;7.582;2023-07-30T11:41:07;20.90;99.90
21678;DHT22;11000;50.360;7.582;2023-07-30T11:43:29;20.80;99.90
21678;DHT22;11000;50.360;7.582;2023-07-30T11:46:15;21.00;99.90
21678;DHT22;11000;50.360;7.582;2023-07-30T11:48:35;21.20;99.90
21678;DHT22;11000;50.360;7.582;2023-07-30T11:50:56;21.40;99.90
21678;DHT22;11000;50.360;7.582;2023-07-30T11:53:18;21.80;99.90
21678;DHT22;11000;50.360;7.582;2023-07-30T11:55:39;22.30;99.90
21678;DHT22;11000;50.360;7.582;2023-07-30T11:58:00;22.50;99.90
21678;DHT22;11000;50.360;7.582;2023-07-30T12:00:21;22.40;99.90
21678;DHT22;11000;50.360;7.582;2023-07-30T12:02:42;22.30;99.90
21678;DHT22;11000;50.360;7.582;2023-07-30T12:05:03;22.10;99.90
21678;DHT22;11000;50.360;7.582;2023-07-30T12:07:24;21.80;99.90
21678;DHT22;11000;50.360;7.582;2023-07-30T12:09:45;21.70;99.90
21678;DHT22;11000;50.360;7.582;2023-07-30T12:12:06;21.70;99.90
21678;DHT22;11000;50.360;7.582;2023-07-30T12:17:07;21.80;99.90
21678;DHT22;11000;50.360;7.582;2023-07-30T12:19:27;21.80;99.90
21678;DHT22;11000;50.360;7.582;2023-07-30T12:21:48;21.80;99.90
21678;DHT22;11000;50.360;7.582;2023-07-30T12:24:08;21.90;99.90
21678;DHT22;11000;50.360;7.582;2023-07-30T12:26:29;22.10;99.90
21678;DHT22;11000;50.360;7.582;2023-07-30T12:28:50;22.40;99.90
21678;DHT22;11000;50.360;7.582;2023-07-30T12:31:11;22.50;99.90
21678;DHT22;11000;50.360;7.582;2023-07-30T12:33:31;22.50;99.90
21678;DHT22;11000;50.360;7.582;2023-07-30T12:35:52;22.50;99.90
21678;DHT22;11000;50.360;7.582;2023-07-30T12:38:13;22.40;99.90
21678;DHT22;11000;50.360;7.582;2023-07-30T12:40:35;22.60;99.90
21678;DHT22;11000;50.360;7.582;2023-07-30T12:42:55;22.50;99.90
21678;DHT22;11000;50.360;7.582;2023-07-30T12:45:16;22.40;99.90
21678;DHT22;11000;50.360;7.582;2023-07-30T12:47:36;22.40;99.90
21678;DHT22;11000;50.360;7.582;2023-07-30T12:49:57;22.30;99.90
21678;DHT22;11000;50.360;7.582;2023-07-30T12:52:18;22.30;99.90
21678;DHT22;11000;50.360;7.582;2023-07-30T12:54:38;22.30;99.90
21678;DHT22;11000;50.360;7.582;2023-07-30T12:56:59;22.30;99.90
21678;DHT22;11000;50.360;7.582;2023-07-30T12:59:19;22.20;99.90
21678;DHT22;11000;50.360;7.582;2023-07-30T13:01:40;22.30;99.90
21678;DHT22;11000;50.360;7.582;2023-07-30T13:04:00;22.30;99.90
21678;DHT22;11000;50.360;7.582;2023-07-30T13:06:21;22.10;99.90
21678;DHT22;11000;50.360;7.582;2023-07-30T13:08:42;22.00;99.90
21678;DHT22;11000;50.360;7.582;2023-07-30T13:11:02;22.00;99.90
21678;DHT22;11000;50.360;7.582;2023-07-30T13:13:23;21.90;99.90
21678;DHT22;11000;50.360;7.582;2023-07-30T13:15:44;21.90;99.90
21678;DHT22;11000;50.360;7.582;2023-07-30T13:18:04;22.00;99.90
21678;DHT22;11000;50.360;7.582;2023-07-30T13:20:25;22.10;99.90
21678;DHT22;11000;50.360;7.582;2023-07-30T13:22:45;22.20;99.90
21678;DHT22;11000;50.360;7.582;2023-07-30T13:25:06;22.20;99.90
21678;DHT22;11000;50.360;7.582;2023-07-30T13:27:27;22.40;99.90
21678;DHT22;11000;50.360;7.582;2023-07-30T13:29:47;22.50;99.90
21678;DHT22;11000;50.360;7.582;2023-07-30T13:32:09;22.60;99.90
21678;DHT22;11000;50.360;7.582;2023-07-30T13:34:30;22.90;99.90
21678;DHT22;11000;50.360;7.582;2023-07-30T13:36:51;23.30;99.90
21678;DHT22;11000;50.360;7.582;2023-07-30T13:39:12;24.00;99.90
21678;DHT22;11000;50.360;7.582;2023-07-30T13:41:32;24.50;99.90
21678;DHT22;11000;50.360;7.582;2023-07-30T13:43:53;24.80;99.90
21678;DHT22;11000;50.360;7.582;2023-07-30T13:46:13;25.10;99.90
21678;DHT22;11000;50.360;7.582;2023-07-30T13:48:34;25.00;99.90
21678;DHT22;11000;50.360;7.582;2023-07-30T13:50:54;25.00;99.90
21678;DHT22;11000;50.360;7.582;2023-07-30T13:53:15;25.20;99.90
21678;DHT22;11000;50.360;7.582;2023-07-30T13:55:36;25.30;99.90
21678;DHT22;11000;50.360;7.582;2023-07-30T13:57:56;25.50;99.90
21678;DHT22;11000;50.360;7.582;2023-07-30T14:00:17;25.50;99.90
21678;DHT22;11000;50.360;7.582;2023-07-30T14:02:37;25.60;99.90
21678;DHT22;11000;50.360;7.582;2023-07-30T14:04:58;25.40;99.00
21678;DHT22;11000;50.360;7.582;2023-07-30T14:07:18;24.90;98.20
21678;DHT22;11000;50.360;7.582;2023-07-30T14:09:39;24.20;99.90
21678;DHT22;11000;50.360;7.582;2023-07-30T14:11:59;24.00;99.90
21678;DHT22;11000;50.360;7.582;2023-07-30T14:14:20;24.20;99.90
21678;DHT22;11000;50.360;7.582;2023-07-30T14:16:42;24.40;99.90
21678;DHT22;11000;50.360;7.582;2023-07-30T14:19:03;24.70;99.50
21678;DHT22;11000;50.360;7.582;2023-07-30T14:21:24;24.80;96.40
21678;DHT22;11000;50.360;7.582;2023-07-30T14:23:44;25.20;92.00
21678;DHT22;11000;50.360;7.582;2023-07-30T14:26:05;25.20;92.10
21678;DHT22;11000;50.360;7.582;2023-07-30T14:28:27;24.70;93.00
21678;DHT22;11000;50.360;7.582;2023-07-30T14:30:47;24.40;92.90
21678;DHT22;11000;50.360;7.582;2023-07-30T14:33:08;24.70;94.80
21678;DHT22;11000;50.360;7.582;2023-07-30T14:35:28;25.10;90.20
21678;DHT22;11000;50.360;7.582;2023-07-30T14:37:49;25.10;90.10
21678;DHT22;11000;50.360;7.582;2023-07-30T14:40:10;24.90;90.30
21678;DHT22;11000;50.360;7.582;2023-07-30T14:42:31;24.60;92.00
21678;DHT22;11000;50.360;7.582;2023-07-30T14:44:52;24.40;94.10
21678;DHT22;11000;50.360;7.582;2023-07-30T14:47:12;24.10;97.00
21678;DHT22;11000;50.360;7.582;2023-07-30T14:49:34;24.10;97.50
21678;DHT22;11000;50.360;7.582;2023-07-30T14:51:55;23.90;99.40
21678;DHT22;11000;50.360;7.582;2023-07-30T14:54:17;24.00;99.40
21678;DHT22;11000;50.360;7.582;2023-07-30T14:56:38;24.10;99.80
21678;DHT22;11000;50.360;7.582;2023-07-30T14:58:58;24.60;98.80